Time;durP1;ratioP1;P1;durP2;ratioP2;P2;SDS_P1;SDS_P2;PMS_P1;PMS_P2;Temp;Humidity;BMP_temperature;BMP_pressure;BME280_temperature;BME280_humidity;BME280_pressure;Samples;Min_cycle;Max_cycle;Signal;HPM_P1;HPM_P2
2021/01/08 00:01:40;;;;;;;8.23;5.00;;;19.10;51.10;;;;;;4999064;28;20030;-55
2021/01/08 00:04:06;;;;;;;8.00;4.50;;;19.10;51.00;;;;;;4981338;28;20084;-54
2021/01/08 00:06:32;;;;;;;7.30;5.07;;;19.00;51.00;;;;;;5000175;28;20529;-57
2021/01/08 00:08:57;;;;;;;10.52;4.32;;;19.10;51.00;;;;;;4999573;28;20034;-57
2021/01/08 00:11:24;;;;;;;10.13;4.95;;;19.10;50.90;;;;;;4981986;28;20530;-57
2021/01/08 00:13:50;;;;;;;6.47;4.28;;;19.00;50.90;;;;;;5000287;28;20042;-56
2021/01/08 00:16:15;;;;;;;9.15;4.72;;;19.10;51.00;;;;;;5000725;28;20801;-58
2021/01/08 00:18:41;;;;;;;8.05;4.72;;;19.00;50.90;;;;;;4984199;28;20026;-55
2021/01/08 00:21:06;;;;;;;10.07;4.50;;;19.00;50.90;;;;;;5002938;28;20125;-53
2021/01/08 00:23:32;;;;;;;7.97;4.30;;;19.00;50.90;;;;;;5002426;28;20113;-58
2021/01/08 00:25:57;;;;;;;8.52;4.45;;;19.10;51.00;;;;;;5000452;28;20030;-55
2021/01/08 00:28:23;;;;;;;4.95;4.45;;;19.10;50.90;;;;;;5000278;28;20617;-55
2021/01/08 00:30:48;;;;;;;7.22;4.47;;;19.10;50.90;;;;;;5001068;28;20645;-57
2021/01/08 00:33:14;;;;;;;7.38;4.50;;;19.10;50.90;;;;;;4999267;28;20044;-55
2021/01/08 00:35:40;;;;;;;7.13;4.40;;;19.00;50.70;;;;;;5001465;28;20030;-53
2021/01/08 00:38:06;;;;;;;8.25;3.72;;;19.00;50.60;;;;;;5001474;28;20034;-58
2021/01/08 00:40:32;;;;;;;7.78;3.75;;;19.00;50.50;;;;;;5001786;28;20069;-52
2021/01/08 00:42:57;;;;;;;10.02;4.45;;;19.00;50.40;;;;;;4976073;28;20065;-52
2021/01/08 00:45:23;;;;;;;5.05;3.50;;;19.00;50.30;;;;;;5001222;28;20042;-58
2021/01/08 00:47:48;;;;;;;7.93;3.72;;;19.00;50.30;;;;;;5000807;28;20065;-53
2021/01/08 00:50:14;;;;;;;5.63;3.83;;;19.00;50.20;;;;;;5001417;28;20041;-53
2021/01/08 00:52:39;;;;;;;3.75;3.15;;;19.00;50.10;;;;;;5001446;28;20414;-51
2021/01/08 00:55:05;;;;;;;5.18;3.80;;;19.00;50.10;;;;;;5001344;28;20491;-57
2021/01/08 00:57:31;;;;;;;6.95;3.50;;;19.10;50.00;;;;;;5001516;28;20046;-58
2021/01/08 00:59:57;;;;;;;7.57;3.33;;;19.00;50.00;;;;;;5001460;28;20049;-56
2021/01/08 01:02:22;;;;;;;5.32;3.53;;;19.00;49.90;;;;;;5001206;28;20034;-57
2021/01/08 01:04:48;;;;;;;5.32;2.90;;;19.00;49.90;;;;;;5001459;28;20033;-57
2021/01/08 01:07:13;;;;;;;5.20;3.05;;;19.00;49.80;;;;;;5001010;28;20041;-58
2021/01/08 01:09:39;;;;;;;5.88;3.50;;;19.00;49.80;;;;;;5001253;28;20029;-58
2021/01/08 01:12:04;;;;;;;4.75;3.75;;;19.00;49.80;;;;;;5001642;28;20179;-57
2021/01/08 01:14:30;;;;;;;4.07;3.17;;;19.00;49.70;;;;;;5001069;28;20026;-55
2021/01/08 01:16:55;;;;;;;4.50;3.20;;;19.00;49.60;;;;;;5000533;28;20406;-55
2021/01/08 01:19:21;;;;;;;7.60;3.45;;;19.00;49.60;;;;;;5001196;28;20041;-53
2021/01/08 01:21:46;;;;;;;4.75;3.40;;;19.00;49.60;;;;;;5001513;28;20044;-56
2021/01/08 01:24:12;;;;;;;5.28;2.83;;;19.00;49.60;;;;;;5000699;28;20498;-57
2021/01/08 01:26:37;;;;;;;4.57;3.40;;;19.00;49.60;;;;;;5001414;28;20587;-55
2021/01/08 01:29:03;;;;;;;4.13;3.55;;;18.90;49.50;;;;;;4999971;28;20042;-51
2021/01/08 01:31:28;;;;;;;3.88;2.97;;;19.00;49.60;;;;;;5000771;28;20045;-57
2021/01/08 01:33:54;;;;;;;3.28;2.70;;;19.00;49.60;;;;;;5000570;28;20070;-57
2021/01/08 01:36:19;;;;;;;3.65;3.10;;;19.00;49.60;;;;;;5001007;28;20034;-57
2021/01/08 01:38:45;;;;;;;3.30;2.90;;;19.00;49.50;;;;;;5000939;28;20026;-55
2021/01/08 01:41:10;;;;;;;3.30;2.60;;;19.00;49.60;;;;;;5001173;28;20034;-57
2021/01/08 01:43:36;;;;;;;2.97;2.47;;;19.00;49.50;;;;;;5000670;28;20061;-55
2021/01/08 01:46:02;;;;;;;4.40;2.85;;;18.90;49.40;;;;;;5000255;28;20565;-55
2021/01/08 01:48:28;;;;;;;3.25;2.75;;;19.00;49.40;;;;;;5002246;28;20049;-53
2021/01/08 01:50:53;;;;;;;4.32;3.50;;;18.90;49.40;;;;;;4989987;28;20033;-57
2021/01/08 01:53:19;;;;;;;3.35;2.90;;;18.90;49.30;;;;;;5003145;28;20092;-55
2021/01/08 01:55:45;;;;;;;3.03;2.72;;;18.90;49.30;;;;;;5003550;28;20380;-56
2021/01/08 01:58:10;;;;;;;3.25;2.85;;;18.90;49.30;;;;;;5004778;28;20403;-56
2021/01/08 02:00:36;;;;;;;3.85;3.20;;;18.90;49.30;;;;;;5003958;28;20088;-54
2021/01/08 02:03:08;;;;;;;3.15;2.83;;;18.90;49.30;;;;;;5003425;28;20050;-57
2021/01/08 02:05:34;;;;;;;3.17;2.88;;;18.90;49.30;;;;;;4987776;28;20132;-56
2021/01/08 02:08:12;;;;;;;2.75;2.45;;;18.90;49.20;;;;;;4986748;28;20479;-57
2021/01/08 02:10:58;;;;;;;3.28;2.40;;;18.90;49.20;;;;;;4986012;28;21386;-53
2021/01/08 02:13:49;;;;;;;2.97;2.50;;;18.80;49.10;;;;;;5002536;28;20042;-54
2021/01/08 02:16:15;;;;;;;2.95;2.65;;;18.80;49.10;;;;;;4988235;28;20053;-54
2021/01/08 02:18:42;;;;;;;2.88;2.45;;;18.80;49.00;;;;;;5003660;28;20029;-54
2021/01/08 02:21:12;;;;;;;4.20;2.58;;;18.90;49.80;;;;;;5003954;28;20030;-56
2021/01/08 02:24:03;;;;;;;2.90;2.60;;;18.90;49.10;;;;;;5002443;28;20038;-56
2021/01/08 02:26:29;;;;;;;2.80;2.60;;;18.80;49.00;;;;;;4944091;28;20030;-56
2021/01/08 02:28:54;;;;;;;2.60;2.40;;;18.80;49.00;;;;;;4986112;28;20695;-54
2021/01/08 02:31:20;;;;;;;2.55;2.20;;;18.70;49.00;;;;;;4986640;28;20037;-54
2021/01/08 02:33:45;;;;;;;3.20;2.45;;;18.80;49.00;;;;;;5003132;28;20034;-55
2021/01/08 02:36:11;;;;;;;2.97;2.50;;;18.70;49.00;;;;;;5002153;28;20271;-54
2021/01/08 02:38:36;;;;;;;3.03;2.72;;;18.70;49.00;;;;;;4985811;28;20040;-51
2021/01/08 02:41:03;;;;;;;3.50;2.65;;;18.70;49.00;;;;;;4986374;28;20042;-56
2021/01/08 02:43:28;;;;;;;2.58;2.38;;;18.60;49.10;;;;;;5001947;28;20054;-56
2021/01/08 02:45:54;;;;;;;2.97;2.70;;;18.60;49.00;;;;;;5003068;28;20486;-56
2021/01/08 02:48:19;;;;;;;2.80;2.50;;;18.60;49.00;;;;;;5003155;28;20037;-56
2021/01/08 02:50:45;;;;;;;3.08;2.58;;;18.60;49.10;;;;;;5003355;28;20061;-52
2021/01/08 02:53:14;;;;;;;2.75;2.38;;;18.50;49.00;;;;;;5001529;28;20126;-54
2021/01/08 02:56:13;;;;;;;3.72;2.53;;;18.50;49.00;;;;;;4995971;28;20045;-52
2021/01/08 02:58:40;;;;;;;2.80;2.42;;;18.50;48.90;;;;;;4970941;28;20428;-55
2021/01/08 03:01:05;;;;;;;3.13;2.20;;;18.50;48.90;;;;;;5000918;28;20068;-55
2021/01/08 03:03:31;;;;;;;2.85;2.58;;;18.40;48.90;;;;;;4984870;28;20050;-57
2021/01/08 03:05:59;;;;;;;3.85;2.38;;;18.40;48.90;;;;;;5001502;28;20037;-52
2021/01/08 03:08:25;;;;;;;2.50;2.30;;;18.40;48.90;;;;;;4985886;28;20527;-57
2021/01/08 03:10:51;;;;;;;2.80;2.30;;;18.40;49.00;;;;;;5003063;28;20088;-55
2021/01/08 03:13:16;;;;;;;3.25;2.60;;;18.40;49.10;;;;;;5003485;28;20034;-53
2021/01/08 03:15:42;;;;;;;2.35;2.08;;;18.30;49.00;;;;;;5001598;28;20043;-56
2021/01/08 03:18:07;;;;;;;3.80;2.58;;;18.30;49.00;;;;;;5002367;28;24738;-52
2021/01/08 03:20:32;;;;;;;2.58;2.10;;;18.30;48.90;;;;;;5002408;28;20096;-54
2021/01/08 03:22:58;;;;;;;7.28;2.25;;;18.30;48.90;;;;;;5002814;28;20492;-57
2021/01/08 03:25:23;;;;;;;2.70;2.45;;;18.40;48.90;;;;;;5003298;28;20029;-55
2021/01/08 03:27:49;;;;;;;3.00;2.42;;;18.40;48.90;;;;;;5001931;28;20109;-57
2021/01/08 03:30:15;;;;;;;2.67;2.05;;;18.40;48.90;;;;;;5002218;28;20032;-56
2021/01/08 03:32:40;;;;;;;2.58;2.08;;;18.40;48.90;;;;;;5000909;28;20045;-53
2021/01/08 03:35:06;;;;;;;2.10;1.73;;;18.50;48.90;;;;;;5002351;28;20386;-56
2021/01/08 03:37:32;;;;;;;2.30;1.90;;;18.50;48.90;;;;;;5002135;28;20033;-54
2021/01/08 03:39:57;;;;;;;2.38;2.17;;;18.50;48.90;;;;;;5002760;28;20088;-55
2021/01/08 03:42:23;;;;;;;1.88;1.77;;;18.50;49.10;;;;;;4985441;28;20034;-55
2021/01/08 03:44:48;;;;;;;2.83;2.50;;;18.50;49.00;;;;;;5002820;28;20034;-56
2021/01/08 03:47:14;;;;;;;2.33;2.13;;;18.50;49.10;;;;;;4998722;28;20442;-55
2021/01/08 03:49:39;;;;;;;2.35;1.90;;;18.50;49.10;;;;;;4999454;28;20152;-56
2021/01/08 03:52:06;;;;;;;2.20;2.00;;;18.60;49.10;;;;;;5000495;28;20034;-57
2021/01/08 03:54:31;;;;;;;1.85;1.70;;;18.60;49.10;;;;;;4999547;28;20040;-55
2021/01/08 03:56:57;;;;;;;2.45;1.77;;;18.60;49.10;;;;;;4999928;28;20034;-55
2021/01/08 03:59:22;;;;;;;2.10;2.00;;;18.60;49.10;;;;;;4999178;28;20046;-52
2021/01/08 04:01:48;;;;;;;1.75;1.65;;;18.70;49.20;;;;;;5001321;28;20034;-56
2021/01/08 04:04:13;;;;;;;2.25;1.92;;;18.70;49.10;;;;;;5001924;28;20038;-57
2021/01/08 04:06:39;;;;;;;2.00;1.63;;;18.70;49.10;;;;;;5001901;28;20142;-57
2021/01/08 04:09:04;;;;;;;1.58;1.48;;;18.80;49.20;;;;;;5001652;28;20668;-54
2021/01/08 04:11:30;;;;;;;2.90;1.60;;;18.80;49.80;;;;;;5001365;28;20084;-53
2021/01/08 04:13:55;;;;;;;2.20;1.60;;;18.80;49.10;;;;;;5000924;28;20037;-56
2021/01/08 04:16:21;;;;;;;1.70;1.40;;;18.90;49.10;;;;;;5002106;28;20045;-56
2021/01/08 04:18:46;;;;;;;1.77;1.60;;;18.90;49.10;;;;;;5002020;28;20428;-55
2021/01/08 04:21:12;;;;;;;2.22;1.73;;;18.90;49.00;;;;;;5001676;28;20049;-57
2021/01/08 04:23:39;;;;;;;1.73;1.55;;;18.90;49.60;;;;;;5000099;28;20057;-57
2021/01/08 04:26:06;;;;;;;1.42;1.33;;;18.90;48.90;;;;;;5001442;28;20037;-52
2021/01/08 04:28:31;;;;;;;2.85;1.65;;;19.00;48.90;;;;;;4983576;28;20117;-56
2021/01/08 04:30:57;;;;;;;1.65;1.15;;;19.00;48.80;;;;;;5000780;28;20026;-55
2021/01/08 04:33:22;;;;;;;1.83;1.48;;;19.00;48.70;;;;;;5002023;28;20518;-54
2021/01/08 04:35:48;;;;;;;1.60;1.50;;;19.00;48.70;;;;;;5000885;28;20037;-51
2021/01/08 04:38:13;;;;;;;2.10;1.85;;;19.00;48.60;;;;;;5001386;28;20146;-51
2021/01/08 04:40:39;;;;;;;2.13;1.67;;;19.10;48.60;;;;;;5001084;28;20030;-57
2021/01/08 04:43:04;;;;;;;1.83;1.60;;;19.00;48.40;;;;;;5000659;28;20155;-57
2021/01/08 04:45:30;;;;;;;1.40;1.30;;;19.10;48.50;;;;;;5001190;28;20030;-57
2021/01/08 04:47:55;;;;;;;2.00;1.45;;;19.00;48.50;;;;;;5000744;28;20033;-57
2021/01/08 04:50:22;;;;;;;1.67;1.58;;;19.00;48.40;;;;;;4983997;28;20034;-56
2021/01/08 04:52:47;;;;;;;1.98;1.45;;;19.10;48.30;;;;;;5000401;28;20026;-57
2021/01/08 04:55:13;;;;;;;1.95;1.52;;;19.10;48.30;;;;;;4983724;28;20041;-54
2021/01/08 04:57:38;;;;;;;1.55;1.30;;;19.10;48.30;;;;;;4999717;28;20426;-57
2021/01/08 05:00:05;;;;;;;2.05;1.50;;;19.10;48.30;;;;;;4983308;28;20078;-57
2021/01/08 05:02:30;;;;;;;1.88;1.67;;;19.00;48.20;;;;;;5000114;28;20030;-57
2021/01/08 05:04:56;;;;;;;1.65;1.55;;;19.00;48.20;;;;;;5001590;28;20088;-57
2021/01/08 05:07:21;;;;;;;1.88;1.60;;;19.00;48.10;;;;;;4999823;28;20030;-57
2021/01/08 05:09:47;;;;;;;2.33;1.42;;;19.00;48.20;;;;;;5000700;28;20522;-57
2021/01/08 05:12:12;;;;;;;1.50;1.40;;;19.00;48.10;;;;;;5001341;28;20065;-57
2021/01/08 05:14:38;;;;;;;2.17;1.52;;;19.00;48.10;;;;;;4999232;28;20072;-55
2021/01/08 05:17:03;;;;;;;1.50;1.40;;;19.00;48.10;;;;;;4997292;28;20133;-57
2021/01/08 05:19:29;;;;;;;1.77;1.50;;;19.00;48.00;;;;;;4997481;28;20472;-56
2021/01/08 05:21:54;;;;;;;1.90;1.38;;;19.00;48.10;;;;;;4998525;28;20049;-55
2021/01/08 05:24:25;;;;;;;1.83;1.38;;;19.00;48.00;;;;;;5000928;28;20449;-54
2021/01/08 05:26:51;;;;;;;2.50;1.73;;;19.00;48.10;;;;;;4985003;28;20025;-57
2021/01/08 05:29:16;;;;;;;1.40;1.02;;;19.00;48.10;;;;;;5000575;28;20533;-57
2021/01/08 05:31:42;;;;;;;1.80;1.55;;;19.00;48.00;;;;;;5005176;28;20105;-53
2021/01/08 05:34:08;;;;;;;1.92;1.42;;;19.00;48.10;;;;;;5003141;28;20042;-55
2021/01/08 05:36:34;;;;;;;1.40;1.30;;;19.00;48.10;;;;;;5004998;28;20057;-51
2021/01/08 05:39:00;;;;;;;2.08;1.60;;;19.00;48.30;;;;;;5001452;28;20038;-57
2021/01/08 05:41:27;;;;;;;2.08;1.35;;;19.00;48.40;;;;;;5004263;28;20099;-53
2021/01/08 05:43:52;;;;;;;3.22;1.40;;;18.90;48.40;;;;;;5024514;22;20062;-62
2021/01/08 05:46:19;;;;;;;2.20;1.45;;;18.90;48.50;;;;;;4992353;28;20022;-63
2021/01/08 05:48:50;;;;;;;3.03;1.70;;;18.90;48.50;;;;;;4989983;28;20033;-62
2021/01/08 05:51:20;;;;;;;4.40;1.40;;;19.00;48.50;;;;;;4995285;28;20018;-63
2021/01/08 05:53:47;;;;;;;2.10;1.33;;;18.90;48.50;;;;;;4988293;28;20041;-63
2021/01/08 05:56:16;;;;;;;3.05;1.67;;;18.90;48.60;;;;;;4987396;28;20619;-63
2021/01/08 05:58:42;;;;;;;2.92;1.63;;;18.90;48.60;;;;;;4989240;28;20117;-64
2021/01/08 06:01:08;;;;;;;2.17;1.48;;;18.90;48.60;;;;;;4989303;28;20396;-63
2021/01/08 06:03:33;;;;;;;7.55;1.80;;;18.90;48.70;;;;;;4985969;28;20031;-64
2021/01/08 06:06:00;;;;;;;4.15;1.80;;;18.90;48.70;;;;;;4988052;28;20029;-63
2021/01/08 06:08:49;;;;;;;2.63;1.95;;;18.90;48.70;;;;;;4988696;28;20117;-63
2021/01/08 06:11:17;;;;;;;3.92;1.65;;;18.90;48.70;;;;;;4989034;28;20050;-63
2021/01/08 06:13:43;;;;;;;2.90;2.13;;;18.90;48.70;;;;;;4986005;28;20034;-60
2021/01/08 06:16:08;;;;;;;4.85;1.92;;;18.90;48.70;;;;;;4985760;28;20084;-65
2021/01/08 06:18:37;;;;;;;4.88;2.38;;;18.90;48.70;;;;;;4967435;28;20106;-66
2021/01/08 06:21:07;;;;;;;2.50;1.88;;;18.90;48.70;;;;;;4987087;28;20041;-65
2021/01/08 06:23:43;;;;;;;5.43;2.88;;;18.80;48.70;;;;;;4975933;28;20094;-65
2021/01/08 06:26:09;;;;;;;;;;;18.90;48.60;;;;;;4987870;28;20022;-62
2021/01/08 06:28:52;;;;;;;2.70;2.25;;;18.90;48.60;;;;;;4988870;28;19963;-63
2021/01/08 06:31:21;;;;;;;4.22;2.75;;;18.90;48.60;;;;;;4986576;28;20030;-63
2021/01/08 06:34:00;;;;;;;4.40;2.60;;;18.90;48.70;;;;;;4985852;28;20022;-63
2021/01/08 06:36:27;;;;;;;8.93;4.65;;;18.80;48.60;;;;;;4988723;28;20030;-63
2021/01/08 06:38:53;;;;;;;11.52;5.38;;;18.80;48.70;;;;;;4971852;28;20037;-62
2021/01/08 06:41:19;;;;;;;12.50;6.20;;;18.80;48.70;;;;;;4989052;28;20054;-62
2021/01/08 06:43:47;;;;;;;12.75;6.63;;;18.80;48.60;;;;;;4989128;28;20035;-65
2021/01/08 06:46:25;;;;;;;12.02;6.13;;;18.80;48.60;;;;;;4973041;28;20026;-66
2021/01/08 06:48:53;;;;;;;13.75;6.15;;;18.80;48.70;;;;;;4974011;28;20029;-66
2021/01/08 06:51:24;;;;;;;14.82;6.88;;;18.80;48.70;;;;;;4988853;28;20018;-65
2021/01/08 06:53:50;;;;;;;11.75;6.45;;;18.70;48.60;;;;;;4971397;28;20527;-67
2021/01/08 06:56:15;;;;;;;10.75;6.40;;;18.70;48.60;;;;;;4970564;28;20179;-66
2021/01/08 06:58:41;;;;;;;19.13;6.95;;;18.70;48.60;;;;;;4970721;28;20045;-67
2021/01/08 07:01:06;;;;;;;12.68;6.32;;;18.70;48.60;;;;;;4970591;28;20034;-67
2021/01/08 07:03:32;;;;;;;17.77;8.13;;;18.70;48.60;;;;;;4970443;28;20081;-67
2021/01/08 07:05:57;;;;;;;16.98;8.25;;;18.70;48.60;;;;;;4970340;28;20018;-66
2021/01/08 07:08:24;;;;;;;21.55;9.98;;;18.70;48.60;;;;;;4971091;28;20041;-66
2021/01/08 07:10:51;;;;;;;17.67;9.32;;;18.70;48.60;;;;;;4972151;28;20109;-66
2021/01/08 07:13:27;;;;;;;20.20;9.93;;;18.70;48.50;;;;;;4988455;28;20052;-66
2021/01/08 07:15:52;;;;;;;17.55;8.52;;;18.60;48.50;;;;;;4988513;28;20030;-66
2021/01/08 07:18:22;;;;;;;15.15;8.45;;;18.70;48.60;;;;;;4988348;28;20064;-67
2021/01/08 07:20:52;;;;;;;24.33;10.68;;;18.70;48.60;;;;;;4955031;28;20497;-66
2021/01/08 07:23:17;;;;;;;20.25;9.77;;;18.60;48.60;;;;;;4987908;28;20061;-66
2021/01/08 07:25:43;;;;;;;17.92;8.73;;;18.60;48.60;;;;;;4970779;28;20046;-66
2021/01/08 07:28:09;;;;;;;16.73;9.00;;;18.60;48.60;;;;;;4954680;28;20026;-66
2021/01/08 07:30:34;;;;;;;16.48;8.75;;;18.60;48.60;;;;;;4971074;28;20425;-66
2021/01/08 07:33:00;;;;;;;16.95;9.95;;;18.60;48.60;;;;;;4970783;28;20022;-64
2021/01/08 07:35:35;;;;;;;19.13;8.50;;;18.60;48.70;;;;;;4970712;28;20030;-66
2021/01/08 07:38:00;;;;;;;18.33;8.50;;;18.60;49.30;;;;;;4987697;28;20489;-66
2021/01/08 07:40:27;;;;;;;15.38;9.43;;;18.60;48.80;;;;;;4987994;28;20022;-66
2021/01/08 07:43:11;;;;;;;15.45;7.93;;;18.60;48.70;;;;;;4988017;28;20030;-66
2021/01/08 07:45:53;;;;;;;15.88;8.32;;;18.60;48.80;;;;;;4969479;28;20030;-67
2021/01/08 07:48:38;;;;;;;15.98;8.85;;;18.60;48.70;;;;;;4987942;28;20506;-67
2021/01/08 07:51:08;;;;;;;13.60;8.70;;;18.60;48.80;;;;;;4988074;28;20029;-67
2021/01/08 07:53:44;;;;;;;21.27;9.07;;;18.60;48.80;;;;;;4971098;28;20038;-66
2021/01/08 07:56:21;;;;;;;18.63;8.57;;;18.60;48.80;;;;;;4968842;28;20029;-63
2021/01/08 07:58:55;;;;;;;18.25;7.63;;;18.60;48.80;;;;;;4988036;28;20022;-66
2021/01/08 08:01:21;;;;;;;18.67;7.63;;;18.60;48.90;;;;;;4988556;28;20065;-66
2021/01/08 08:03:48;;;;;;;19.10;8.63;;;18.60;48.90;;;;;;4988104;28;20440;-66
2021/01/08 08:06:13;;;;;;;15.23;7.60;;;18.60;48.90;;;;;;4986856;28;20065;-66
2021/01/08 08:08:41;;;;;;;13.82;8.00;;;18.60;48.90;;;;;;4988455;28;20404;-66
2021/01/08 08:11:10;;;;;;;13.77;8.45;;;18.60;48.90;;;;;;4988253;28;20030;-66
2021/01/08 08:13:36;;;;;;;13.23;7.20;;;18.60;48.90;;;;;;4988172;28;20027;-67
2021/01/08 08:16:02;;;;;;;17.13;8.23;;;18.60;49.00;;;;;;4988211;28;20023;-67
2021/01/08 08:18:27;;;;;;;14.82;7.25;;;18.60;48.90;;;;;;4987173;28;20582;-66
2021/01/08 08:21:06;;;;;;;18.92;7.53;;;18.60;49.00;;;;;;4988090;28;20026;-66
2021/01/08 08:23:32;;;;;;;14.07;7.03;;;18.60;49.00;;;;;;4988181;28;20026;-66
2021/01/08 08:25:57;;;;;;;14.80;7.40;;;18.60;49.00;;;;;;4987969;28;20041;-66
2021/01/08 08:28:23;;;;;;;11.82;6.50;;;18.60;49.00;;;;;;4987751;28;20023;-66
2021/01/08 08:30:51;;;;;;;14.57;6.97;;;18.60;49.00;;;;;;4987804;28;20404;-66
2021/01/08 08:33:17;;;;;;;10.35;6.03;;;18.60;49.10;;;;;;4985930;28;20037;-62
2021/01/08 08:35:42;;;;;;;11.82;6.63;;;18.60;49.00;;;;;;4983726;28;20026;-65
2021/01/08 08:38:08;;;;;;;15.25;7.05;;;18.60;49.00;;;;;;4984532;28;20041;-66
2021/01/08 08:40:33;;;;;;;13.57;6.38;;;18.60;49.00;;;;;;4981498;28;20150;-66
2021/01/08 08:43:00;;;;;;;15.88;6.15;;;18.60;49.00;;;;;;4983872;28;20042;-65
2021/01/08 08:45:33;;;;;;;11.85;5.88;;;18.60;49.00;;;;;;4984824;28;20026;-66
2021/01/08 08:48:07;;;;;;;10.43;5.55;;;18.60;49.00;;;;;;4984574;28;20041;-67
2021/01/08 08:50:33;;;;;;;10.30;5.68;;;18.60;49.00;;;;;;4986521;28;20411;-68
2021/01/08 08:52:59;;;;;;;13.35;5.97;;;18.60;49.00;;;;;;4985606;28;20027;-66
2021/01/08 08:55:25;;;;;;;10.82;5.75;;;18.60;49.00;;;;;;4983710;28;20026;-67
2021/01/08 08:58:03;;;;;;;14.70;5.40;;;18.60;49.00;;;;;;4985209;28;20021;-67
2021/01/08 09:00:29;;;;;;;10.18;4.45;;;18.60;49.10;;;;;;4984748;28;20060;-67
2021/01/08 09:02:54;;;;;;;10.38;5.30;;;18.60;49.30;;;;;;4986587;28;20018;-65
2021/01/08 09:05:20;;;;;;;8.90;4.97;;;18.60;49.40;;;;;;4985595;28;20034;-66
2021/01/08 09:08:03;;;;;;;11.02;5.13;;;18.60;49.30;;;;;;4984246;28;20015;-65
2021/01/08 09:10:30;;;;;;;10.30;5.25;;;18.60;49.40;;;;;;4984390;28;20480;-65
2021/01/08 09:13:15;;;;;;;11.20;5.40;;;18.60;49.30;;;;;;4984076;28;20026;-65
2021/01/08 09:15:52;;;;;;;9.10;4.50;;;18.70;49.30;;;;;;4984523;28;20018;-61
2021/01/08 09:18:43;;;;;;;8.52;4.53;;;18.60;49.30;;;;;;4985737;28;20738;-65
2021/01/08 09:21:18;;;;;;;8.50;4.60;;;18.60;49.40;;;;;;4982501;28;20034;-65
2021/01/08 09:23:44;;;;;;;9.85;5.25;;;18.60;49.30;;;;;;4985307;28;20014;-66
2021/01/08 09:26:10;;;;;;;8.73;4.30;;;18.60;49.40;;;;;;4984243;28;20488;-66
2021/01/08 09:28:42;;;;;;;9.50;4.35;;;18.70;49.40;;;;;;4983955;28;20018;-66
2021/01/08 09:31:08;;;;;;;7.40;4.40;;;18.60;49.30;;;;;;4987007;28;20042;-65
2021/01/08 09:33:39;;;;;;;11.13;4.68;;;18.60;49.40;;;;;;4969936;28;20026;-66
2021/01/08 09:36:05;;;;;;;8.75;3.80;;;18.60;49.40;;;;;;4987742;28;20058;-66
2021/01/08 09:38:31;;;;;;;7.78;4.15;;;18.70;49.40;;;;;;4988131;28;20014;-66
2021/01/08 09:40:57;;;;;;;8.20;3.47;;;18.60;49.40;;;;;;4987152;28;20073;-66
2021/01/08 09:43:23;;;;;;;7.80;3.92;;;18.60;49.40;;;;;;4986705;28;20038;-66
2021/01/08 09:46:02;;;;;;;8.07;4.32;;;18.70;49.40;;;;;;4986775;28;20023;-65
2021/01/08 09:48:28;;;;;;;5.82;3.92;;;18.60;49.40;;;;;;4987039;28;20034;-65
2021/01/08 09:51:00;;;;;;;6.15;3.60;;;18.70;49.40;;;;;;4987300;28;20069;-64
2021/01/08 09:53:26;;;;;;;9.05;3.97;;;18.70;49.40;;;;;;4986757;28;20041;-65
2021/01/08 09:55:51;;;;;;;5.95;3.60;;;18.70;49.40;;;;;;4986618;28;20440;-65
2021/01/08 09:58:17;;;;;;;6.00;3.55;;;18.70;49.40;;;;;;4987218;28;20515;-65
2021/01/08 10:00:42;;;;;;;7.80;3.97;;;18.70;49.40;;;;;;4986966;28;20027;-65
2021/01/08 10:03:18;;;;;;;5.40;3.50;;;18.70;49.40;;;;;;4986378;28;20089;-64
2021/01/08 10:05:43;;;;;;;;;;;18.70;49.40;;;;;;4969809;28;20508;-66
2021/01/08 10:08:18;;;;;;;6.22;3.72;;;18.70;49.40;;;;;;4987479;28;19905;-66
2021/01/08 10:10:43;;;;;;;9.23;3.75;;;18.70;49.40;;;;;;4973112;28;20716;-66
2021/01/08 10:13:20;;;;;;;5.00;3.35;;;18.70;49.50;;;;;;4990378;28;20030;-66
2021/01/08 10:15:47;;;;;;;5.22;3.17;;;18.70;49.50;;;;;;4973186;28;20029;-61
2021/01/08 10:18:14;;;;;;;4.72;3.15;;;18.70;49.50;;;;;;4990685;28;20019;-66
2021/01/08 10:20:44;;;;;;;6.60;3.17;;;18.70;49.40;;;;;;4973325;28;20602;-65
2021/01/08 10:23:13;;;;;;;5.75;2.60;;;18.70;49.40;;;;;;4990741;28;20030;-65
2021/01/08 10:25:39;;;;;;;4.72;2.65;;;18.70;49.40;;;;;;4990238;28;20019;-65
2021/01/08 10:28:09;;;;;;;5.35;3.28;;;18.80;49.50;;;;;;4990190;28;20054;-65
2021/01/08 10:30:34;;;;;;;4.97;2.65;;;18.70;49.40;;;;;;4990331;28;20033;-65
2021/01/08 10:33:00;;;;;;;4.57;2.65;;;18.80;49.40;;;;;;4990493;28;20401;-66
2021/01/08 10:35:25;;;;;;;4.82;2.90;;;18.80;49.40;;;;;;4973163;28;20030;-67
2021/01/08 10:37:51;;;;;;;4.32;2.50;;;18.70;49.30;;;;;;4990664;28;20076;-65
2021/01/08 10:40:16;;;;;;;5.13;3.35;;;18.80;49.40;;;;;;4972988;28;20045;-65
2021/01/08 10:42:42;;;;;;;3.95;2.60;;;18.70;49.40;;;;;;4990077;28;20404;-66
2021/01/08 10:45:07;;;;;;;3.70;2.35;;;18.80;49.40;;;;;;4989581;28;20046;-66
2021/01/08 10:47:33;;;;;;;5.85;2.25;;;18.80;49.40;;;;;;4989570;28;20041;-66
2021/01/08 10:50:01;;;;;;;3.20;2.45;;;18.80;49.40;;;;;;4990179;28;20404;-66
2021/01/08 10:52:27;;;;;;;3.83;2.10;;;18.80;49.40;;;;;;4990393;28;20026;-66
2021/01/08 10:54:52;;;;;;;2.83;2.05;;;18.70;49.30;;;;;;4989767;28;20026;-66
2021/01/08 10:57:18;;;;;;;2.75;1.95;;;18.70;49.30;;;;;;4989519;28;20105;-66
2021/01/08 10:59:44;;;;;;;3.67;2.17;;;18.80;49.40;;;;;;4972298;28;20046;-66
2021/01/08 11:02:10;;;;;;;3.80;2.60;;;18.70;49.20;;;;;;4989375;28;20035;-66
2021/01/08 11:04:36;;;;;;;3.50;2.17;;;18.70;49.20;;;;;;4971869;28;20046;-66
2021/01/08 11:07:01;;;;;;;5.20;2.30;;;18.70;49.20;;;;;;4989609;28;20031;-66
2021/01/08 11:09:27;;;;;;;2.83;1.80;;;18.70;49.20;;;;;;4989481;28;20038;-66
2021/01/08 11:11:52;;;;;;;3.13;2.10;;;18.70;49.20;;;;;;4989554;28;20030;-66
2021/01/08 11:14:18;;;;;;;4.00;2.30;;;18.70;49.20;;;;;;4989361;28;20034;-66
2021/01/08 11:16:43;;;;;;;4.57;2.80;;;18.70;49.20;;;;;;4971983;28;20096;-66
2021/01/08 11:19:09;;;;;;;4.70;2.35;;;18.70;49.20;;;;;;4971682;28;20072;-66
2021/01/08 11:21:34;;;;;;;4.65;2.67;;;18.70;49.20;;;;;;4971947;28;20027;-67
2021/01/08 11:24:00;;;;;;;4.00;2.45;;;18.70;49.20;;;;;;4988998;28;20027;-66
2021/01/08 11:26:26;;;;;;;3.92;2.20;;;18.70;49.20;;;;;;4971584;28;20126;-64
2021/01/08 11:28:53;;;;;;;3.13;2.17;;;18.70;49.20;;;;;;4969624;28;20026;-64
2021/01/08 11:31:18;;;;;;;2.75;2.03;;;18.70;49.20;;;;;;4968465;28;20477;-64
2021/01/08 11:33:45;;;;;;;4.20;2.10;;;18.70;49.20;;;;;;4985649;28;20081;-62
2021/01/08 11:36:11;;;;;;;2.80;1.92;;;18.70;49.00;;;;;;4968367;28;20464;-65
2021/01/08 11:38:36;;;;;;;2.95;2.30;;;18.70;49.00;;;;;;4965052;28;20054;-66
2021/01/08 11:41:02;;;;;;;3.85;2.47;;;18.60;49.00;;;;;;4986104;28;20492;-66
2021/01/08 11:43:27;;;;;;;4.28;2.50;;;18.60;49.00;;;;;;4968603;28;20042;-64
2021/01/08 11:45:53;;;;;;;4.00;2.00;;;18.60;49.00;;;;;;4985877;28;20523;-66
2021/01/08 11:48:18;;;;;;;3.45;2.15;;;18.60;49.00;;;;;;4986496;28;20038;-66
2021/01/08 11:50:44;;;;;;;4.13;2.10;;;18.60;49.00;;;;;;4986407;28;20026;-66
2021/01/08 11:53:09;;;;;;;4.13;2.60;;;18.60;48.90;;;;;;4986006;28;20504;-66
2021/01/08 11:55:35;;;;;;;3.58;2.10;;;18.60;49.00;;;;;;4986047;28;20027;-67
2021/01/08 11:58:00;;;;;;;2.85;2.20;;;18.60;49.00;;;;;;4982734;28;20030;-64
2021/01/08 12:00:26;;;;;;;3.90;2.20;;;18.60;48.90;;;;;;4985181;28;20126;-65
2021/01/08 12:02:51;;;;;;;2.45;1.95;;;18.60;48.90;;;;;;4985530;28;20040;-65
2021/01/08 12:05:17;;;;;;;3.38;2.03;;;18.60;49.60;;;;;;4986541;28;20464;-63
2021/01/08 12:07:42;;;;;;;2.08;1.55;;;18.60;48.90;;;;;;4985819;28;20448;-63
2021/01/08 12:10:09;;;;;;;2.42;1.92;;;18.60;48.90;;;;;;4968652;28;20033;-64
2021/01/08 12:12:34;;;;;;;2.38;1.90;;;18.60;49.00;;;;;;4985989;28;20128;-64
2021/01/08 12:15:00;;;;;;;3.03;2.22;;;18.60;49.00;;;;;;4986232;28;20054;-65
2021/01/08 12:17:25;;;;;;;2.28;1.75;;;18.60;49.00;;;;;;4985777;28;20081;-65
2021/01/08 12:19:51;;;;;;;3.42;1.92;;;18.60;49.00;;;;;;4968535;28;20039;-64
2021/01/08 12:22:16;;;;;;;3.25;1.98;;;18.60;49.00;;;;;;4986042;28;20041;-65
2021/01/08 12:24:42;;;;;;;2.65;1.75;;;18.60;49.00;;;;;;4985366;28;20062;-64
2021/01/08 12:27:07;;;;;;;3.83;2.55;;;18.70;49.10;;;;;;4985359;28;20100;-65
2021/01/08 12:29:34;;;;;;;2.40;1.80;;;18.70;49.10;;;;;;4985564;28;20089;-64
2021/01/08 12:32:01;;;;;;;2.58;1.55;;;18.70;49.20;;;;;;4985740;28;20026;-65
2021/01/08 12:34:26;;;;;;;2.33;1.60;;;18.70;49.20;;;;;;4968622;28;20030;-65
2021/01/08 12:36:52;;;;;;;2.28;1.80;;;18.70;49.10;;;;;;4985533;28;20582;-64
2021/01/08 12:39:17;;;;;;;2.45;1.58;;;18.70;49.20;;;;;;4985695;28;20035;-65
2021/01/08 12:41:43;;;;;;;2.70;1.60;;;18.70;49.10;;;;;;5008982;22;20482;-57
2021/01/08 12:44:09;;;;;;;1.80;1.42;;;18.70;49.10;;;;;;5021706;28;20046;-50
2021/01/08 12:46:34;;;;;;;2.50;1.77;;;18.70;49.10;;;;;;5022348;28;20021;-49